Thursday, July 24, 2014
13:07 UTC
  |  Log In   |  Register Free
Airport Search:

New River Valley Airport
(KPSK)

New River Valley Airport Diagram
No Airport Diagram Available

FAA data valid effective May 29, 2014 until July 24, 2014 (unless otherwise noted).

 
 
 
 
 
 
 
 
 
 
 
 
 
 

Current Aviation Weather for New River Valley Airport (KPSK)

The most recent METAR observation for KPSK was updated at: 1235 UTC
METAR Summary (Translated METAR)
KPSK
241235Z AUTO 00000KT 10SM BKN120 22/21 A3002 RMK AO2 T02230205
KBCB
(13.6 nm NE from KPSK)
241235Z AUTO 00000KT 10SM BKN110 21/21 RMK AO2
TAF Summary (Translated TAF)
KBCB
(13.6 nm NE from KPSK)
241141Z 2412/2512 00000KT P6SM SCT040 BKN100 FM241700 29005KT P6SM VCTS BKN040CB FM242200 31006KT P6SM BKN050 FM250800 00000KT 1/2SM FG OVC001
  Airport Weather Conditions for KPSK

 Current Weather at PSK
70° F
Overcast
North winds at 0.0 mph
PSK NOAA Radar

Pressure: 30.01 in
Humidity: 92%
Wind: Calm
Dew Point: 67.8°F
Visibility: 10.00 mi


Airport Weather Forecast for KPSK

Translated METAR and TAF for KPSK
Translated METAR for KPSK (1301 UTC 24 July 2014)
found at http://aviationweather.gov/adds/metars/
 
METAR text: KPSK 241255Z AUTO 23003KT 10SM OVC110 23/20 A3002 RMK AO2 T02260204
Conditions at: KPSK (DUBLIN/NEW RIV , VA, US) observed 1255 UTC 24 July 2014
Temperature: 22.6°C (73°F)
Dewpoint: 20.4°C (69°F) [RH = 87%]
Pressure (altimeter): 30.02 inches Hg (1016.7 mb)
Winds: from the SW (230 degrees) at 3 MPH (3 knots; 1.6 m/s)
Visibility: 10 or more miles (16+ km)
Ceiling: 11000 feet AGL
Clouds: overcast cloud deck at 11000 feet AGL
Weather: automated observation with no human augmentation;
there may or may not be significant weather present at this time
Translated TAF for KPSK

There is no translated TAF available for this airport

Find All Airport Services Find A Hotel Find A Rental Car Find A Golf Course Find A Restaurant $100 Hamburger



FBO's on the Field
FBO Company Facility Photos Services Transportation Aviation Fuel Prices: Prices include tax
Catering Weather Repair Courtesy Rental Type 100LL JetA JetA+ MOGAS 8087
 
New River Valley Airport

This FBO has not yet been rated
FS:Avfuel
Last Updated: Jul-02
Login to update fuel prices
SS:
Contact New River Valley AirportMore FBO Information
 
Add another FBO Facility Photos Catering Weather Repair Courtesy Rental Type 100LL JetA JetA+ MOGAS 8087
Services Transportation Aviation Fuel Prices: Prices include tax


GlobalAir.com Airport Resource Center model-print
model-print
model-print
model-print